createdAt,value
2023-04-30T00:00:10.641Z,3.40
2023-04-30T00:02:38.502Z,2.83
2023-04-30T00:05:07.614Z,2.35
2023-04-30T00:07:34.842Z,2.15
2023-04-30T00:10:02.788Z,2.72
2023-04-30T00:12:29.996Z,2.42
2023-04-30T00:14:57.508Z,2.45
2023-04-30T00:17:25.345Z,2.38
2023-04-30T00:19:52.888Z,2.97
2023-04-30T00:22:23.155Z,2.83
2023-04-30T00:24:50.434Z,2.55
2023-04-30T00:27:17.471Z,2.70
2023-04-30T00:29:44.713Z,2.40
2023-04-30T00:32:11.732Z,2.90
2023-04-30T00:34:38.569Z,2.70
2023-04-30T00:37:05.907Z,2.45
2023-04-30T00:39:33.547Z,2.60
2023-04-30T00:42:01.269Z,2.65
2023-04-30T00:44:28.551Z,2.85
2023-04-30T00:46:56.429Z,2.80
2023-04-30T00:49:23.924Z,2.25
2023-04-30T00:51:51.681Z,2.55
2023-04-30T00:54:21.434Z,2.20
2023-04-30T00:56:49.602Z,2.22
2023-04-30T00:59:17.754Z,2.35
2023-04-30T01:01:45.808Z,2.80
2023-04-30T01:04:13.336Z,2.85
2023-04-30T01:06:41.286Z,3.00
2023-04-30T01:09:08.664Z,2.90
2023-04-30T01:11:50.441Z,2.72
2023-04-30T01:14:21.810Z,2.78
2023-04-30T01:17:01.572Z,2.35
2023-04-30T01:19:44.905Z,2.67
2023-04-30T01:22:26.987Z,2.30
2023-04-30T01:25:31.628Z,2.00
2023-04-30T01:28:16.182Z,2.63
2023-04-30T01:30:47.036Z,2.35
2023-04-30T01:33:15.050Z,2.00
2023-04-30T01:35:51.338Z,2.70
2023-04-30T01:38:40.330Z,2.50
2023-04-30T01:41:21.748Z,2.10
2023-04-30T01:44:40.164Z,1.90
2023-04-30T01:47:24.700Z,2.20
2023-04-30T01:50:20.105Z,2.03
2023-04-30T01:52:52.809Z,2.30
2023-04-30T01:55:54.646Z,2.15
2023-04-30T01:58:24.316Z,1.98
2023-04-30T02:00:52.194Z,1.98
2023-04-30T02:03:19.644Z,2.05
2023-04-30T02:05:48.449Z,2.10
2023-04-30T02:08:15.623Z,2.22
2023-04-30T02:10:42.904Z,2.80
2023-04-30T02:13:10.425Z,2.35
2023-04-30T02:15:37.831Z,2.10
2023-04-30T02:18:08.083Z,2.20
2023-04-30T02:20:35.295Z,3.05
2023-04-30T02:23:03.680Z,2.50
2023-04-30T02:25:33.963Z,2.80
2023-04-30T02:28:01.510Z,3.15
2023-04-30T02:30:30.278Z,3.85
2023-04-30T02:32:58.119Z,4.55
2023-04-30T02:35:26.755Z,5.47
2023-04-30T02:37:54.267Z,4.63
2023-04-30T02:40:21.966Z,5.05
2023-04-30T02:42:49.943Z,4.35
2023-04-30T02:45:17.898Z,5.28
2023-04-30T02:47:45.415Z,6.38
2023-04-30T02:50:13.143Z,5.90
2023-04-30T02:52:42.333Z,6.55
2023-04-30T02:55:10.735Z,6.40
2023-04-30T02:57:38.360Z,5.88
2023-04-30T03:00:07.608Z,5.38
2023-04-30T03:02:36.970Z,5.80
2023-04-30T03:05:05.885Z,5.55
2023-04-30T03:07:36.481Z,5.82
2023-04-30T03:10:05.865Z,5.50
2023-04-30T03:12:34.005Z,5.57
2023-04-30T03:15:01.940Z,5.53
2023-04-30T03:17:29.944Z,5.03
2023-04-30T03:19:58.867Z,5.85
2023-04-30T03:22:28.527Z,5.05
2023-04-30T03:24:56.218Z,6.10
2023-04-30T03:27:24.299Z,5.20
2023-04-30T03:29:53.790Z,5.07
2023-04-30T03:32:22.088Z,4.47
2023-04-30T03:34:51.816Z,4.28
2023-04-30T03:37:21.720Z,5.00
2023-04-30T03:39:49.952Z,4.35
2023-04-30T03:42:17.498Z,4.50
2023-04-30T03:44:45.772Z,3.88
2023-04-30T03:47:13.683Z,3.45
2023-04-30T03:49:42.044Z,3.85
2023-04-30T03:52:09.753Z,3.63
2023-04-30T03:54:37.646Z,4.00
2023-04-30T03:57:05.952Z,4.25
2023-04-30T03:59:33.524Z,4.35
2023-04-30T04:02:06.618Z,4.40
2023-04-30T04:04:34.923Z,3.75
2023-04-30T04:07:03.923Z,3.60
2023-04-30T04:09:31.887Z,3.90
2023-04-30T04:12:00.075Z,3.70
2023-04-30T04:14:28.249Z,3.33
2023-04-30T04:16:58.461Z,2.60
2023-04-30T04:19:29.886Z,2.78
2023-04-30T04:21:58.366Z,2.00
2023-04-30T04:24:27.577Z,2.10
2023-04-30T04:26:56.372Z,1.80
2023-04-30T04:29:24.637Z,2.40
2023-04-30T04:31:53.697Z,2.53
2023-04-30T04:34:23.271Z,3.15
2023-04-30T04:36:51.465Z,2.80
2023-04-30T04:39:20.762Z,2.42
2023-04-30T04:41:48.989Z,2.17
2023-04-30T04:44:18.732Z,1.60
2023-04-30T04:46:47.817Z,1.65
2023-04-30T04:49:17.680Z,1.75
2023-04-30T04:51:45.720Z,1.58
2023-04-30T04:54:14.705Z,1.30
2023-04-30T04:56:43.032Z,1.30
2023-04-30T04:59:12.552Z,1.42
2023-04-30T05:01:40.253Z,1.30
2023-04-30T05:04:10.264Z,1.35
2023-04-30T05:06:38.904Z,1.45
2023-04-30T05:09:10.890Z,1.67
2023-04-30T05:11:42.122Z,1.50
2023-04-30T05:14:09.660Z,1.58
2023-04-30T05:16:37.635Z,1.52
2023-04-30T05:19:04.988Z,1.40
2023-04-30T05:21:32.376Z,1.63
2023-04-30T05:23:59.885Z,1.45
2023-04-30T05:26:27.368Z,1.45
2023-04-30T05:28:55.004Z,1.05
2023-04-30T05:31:22.417Z,1.20
2023-04-30T05:33:50.040Z,1.15
2023-04-30T05:36:17.520Z,1.20
2023-04-30T05:38:44.760Z,1.35
2023-04-30T05:41:13.171Z,1.33
2023-04-30T05:43:40.631Z,1.40
2023-04-30T05:46:08.368Z,1.30
2023-04-30T05:48:35.993Z,1.30
2023-04-30T05:51:03.337Z,1.20
2023-04-30T05:53:30.833Z,1.15
2023-04-30T05:55:57.759Z,1.48
2023-04-30T05:58:26.329Z,1.17
2023-04-30T06:00:54.976Z,1.10
2023-04-30T06:03:22.885Z,1.25
2023-04-30T06:05:50.548Z,1.13
2023-04-30T06:08:18.237Z,1.00
2023-04-30T06:10:45.480Z,1.08
2023-04-30T06:13:12.802Z,1.10
2023-04-30T06:15:40.104Z,1.38
2023-04-30T06:18:07.948Z,1.20
2023-04-30T06:20:35.339Z,1.20
2023-04-30T06:23:06.792Z,1.00
2023-04-30T06:25:34.170Z,1.20
2023-04-30T06:28:01.672Z,1.13
2023-04-30T06:30:30.573Z,1.10
2023-04-30T06:32:57.700Z,0.98
2023-04-30T06:35:24.608Z,0.90
2023-04-30T06:37:52.018Z,0.80
2023-04-30T06:40:20.962Z,0.85
2023-04-30T06:42:48.008Z,1.05
2023-04-30T06:45:15.570Z,1.27
2023-04-30T06:47:43.114Z,0.95
2023-04-30T06:50:11.137Z,0.90
2023-04-30T06:52:38.994Z,1.08
2023-04-30T06:55:07.144Z,1.10
2023-04-30T06:57:34.141Z,1.10
2023-04-30T07:00:02.733Z,0.82
2023-04-30T07:02:30.107Z,1.00
2023-04-30T07:04:58.263Z,1.20
2023-04-30T07:07:25.657Z,0.98
2023-04-30T07:09:54.158Z,0.80
2023-04-30T07:12:22.755Z,0.70
2023-04-30T07:14:50.048Z,0.90
2023-04-30T07:17:17.017Z,0.80
2023-04-30T07:19:44.098Z,0.80
2023-04-30T07:22:11.682Z,0.60
2023-04-30T07:24:38.775Z,0.60
2023-04-30T07:27:07.496Z,0.95
2023-04-30T07:29:35.477Z,0.95
2023-04-30T07:32:03.483Z,0.88
2023-04-30T07:34:30.532Z,1.30
2023-04-30T07:36:57.576Z,0.60
2023-04-30T07:39:24.529Z,0.80
2023-04-30T07:41:51.589Z,0.80
2023-04-30T07:44:19.098Z,0.65
2023-04-30T07:46:46.975Z,0.55
2023-04-30T07:49:14.253Z,0.70
2023-04-30T07:51:43.331Z,0.70
2023-04-30T07:54:11.066Z,0.77
2023-04-30T07:56:38.296Z,0.93
2023-04-30T07:59:06.053Z,0.90
2023-04-30T08:01:33.477Z,0.70
2023-04-30T08:04:00.913Z,0.80
2023-04-30T08:06:28.001Z,0.45
2023-04-30T08:08:55.460Z,0.93
2023-04-30T08:11:22.884Z,0.90
2023-04-30T08:13:50.343Z,0.90
2023-04-30T08:16:17.854Z,0.70
2023-04-30T08:18:46.823Z,0.80
2023-04-30T08:21:14.547Z,0.82
2023-04-30T08:23:41.622Z,0.70
2023-04-30T08:26:09.134Z,0.70
2023-04-30T08:28:39.307Z,0.85
2023-04-30T08:31:06.422Z,0.82
2023-04-30T08:33:33.681Z,0.80
2023-04-30T08:36:03.997Z,0.77
2023-04-30T08:38:30.964Z,0.93
2023-04-30T08:41:13.621Z,0.80
2023-04-30T08:46:09.676Z,0.90
2023-04-30T08:48:37.203Z,0.90
2023-04-30T08:51:04.764Z,0.73
2023-04-30T08:53:36.201Z,0.80
2023-04-30T08:56:06.994Z,0.60
2023-04-30T08:58:34.369Z,0.70
2023-04-30T09:01:03.390Z,0.70
2023-04-30T09:03:31.740Z,0.60
2023-04-30T09:05:58.759Z,0.80
2023-04-30T09:08:43.129Z,0.95
2023-04-30T09:11:28.590Z,0.80
2023-04-30T09:13:58.306Z,0.88
2023-04-30T09:16:28.264Z,0.90
2023-04-30T09:18:56.890Z,1.05
2023-04-30T09:21:34.788Z,0.70
2023-04-30T09:24:04.623Z,0.70
2023-04-30T09:26:37.970Z,1.02
2023-04-30T09:29:10.327Z,1.08
2023-04-30T09:31:39.195Z,1.10
2023-04-30T09:34:07.334Z,1.10
2023-04-30T09:36:35.381Z,1.30
2023-04-30T09:39:15.535Z,1.48
2023-04-30T09:41:43.829Z,0.90
2023-04-30T09:44:30.195Z,1.00
2023-04-30T09:46:59.525Z,0.80
2023-04-30T09:49:27.896Z,1.30
2023-04-30T09:52:00.202Z,0.88
2023-04-30T09:54:29.605Z,0.90
2023-04-30T09:56:58.724Z,0.68
2023-04-30T09:59:35.534Z,0.57
2023-04-30T10:02:05.110Z,0.70
2023-04-30T10:04:42.276Z,0.90
2023-04-30T10:07:15.672Z,1.13
2023-04-30T10:10:05.281Z,0.70
2023-04-30T10:12:44.962Z,0.60
2023-04-30T10:15:17.831Z,0.57
2023-04-30T10:17:50.954Z,0.80
2023-04-30T10:20:23.949Z,0.60
2023-04-30T10:22:53.115Z,0.65
2023-04-30T10:25:20.259Z,0.80
2023-04-30T10:27:51.367Z,1.05
2023-04-30T10:30:19.086Z,0.65
2023-04-30T10:32:58.450Z,0.88
2023-04-30T10:35:41.781Z,0.65
2023-04-30T10:38:27.089Z,0.75
2023-04-30T10:40:59.471Z,1.20
2023-04-30T10:43:27.716Z,0.68
2023-04-30T10:45:57.377Z,0.85
2023-04-30T10:48:26.390Z,0.90
2023-04-30T10:50:56.844Z,0.63
2023-04-30T10:53:26.418Z,0.80
2023-04-30T10:55:58.646Z,0.73
2023-04-30T10:58:34.795Z,0.73
2023-04-30T11:01:15.955Z,0.85
2023-04-30T11:04:04.228Z,1.02
2023-04-30T11:06:57.062Z,0.82
2023-04-30T11:09:44.508Z,0.80
2023-04-30T11:12:11.962Z,1.00
2023-04-30T11:14:46.689Z,1.25
2023-04-30T11:17:23.845Z,1.10
2023-04-30T11:19:53.733Z,0.80
2023-04-30T11:22:24.916Z,0.70
2023-04-30T11:25:06.094Z,1.10
2023-04-30T11:27:35.369Z,1.10
2023-04-30T11:30:05.873Z,0.90
2023-04-30T11:32:35.744Z,1.10
2023-04-30T11:35:05.023Z,0.60
2023-04-30T11:37:40.478Z,0.93
2023-04-30T11:40:11.266Z,0.98
2023-04-30T11:42:40.831Z,1.05
2023-04-30T11:45:11.356Z,0.80
2023-04-30T11:47:41.741Z,0.77
2023-04-30T11:50:12.142Z,1.00
2023-04-30T11:52:40.655Z,0.95
2023-04-30T11:55:18.619Z,0.70
2023-04-30T11:57:49.078Z,1.00
2023-04-30T12:00:22.465Z,0.82
2023-04-30T12:02:51.009Z,1.17
2023-04-30T12:05:21.006Z,0.85
2023-04-30T12:07:58.439Z,0.93
2023-04-30T12:10:26.156Z,1.00
2023-04-30T12:12:54.968Z,1.10
2023-04-30T12:15:27.388Z,1.10
2023-04-30T12:17:59.666Z,0.95
2023-04-30T12:20:29.059Z,1.30
2023-04-30T12:22:57.091Z,0.68
2023-04-30T12:25:25.124Z,0.70
2023-04-30T12:27:53.822Z,0.60
2023-04-30T12:30:24.271Z,0.77
2023-04-30T12:32:53.426Z,1.00
2023-04-30T12:35:25.338Z,0.68
2023-04-30T12:38:03.094Z,0.98
2023-04-30T12:40:30.905Z,0.60
2023-04-30T12:43:06.805Z,0.80
2023-04-30T12:46:06.986Z,0.55
2023-04-30T12:48:47.844Z,0.77
2023-04-30T12:51:20.624Z,1.05
2023-04-30T12:53:48.483Z,1.10
2023-04-30T12:56:18.377Z,1.20
2023-04-30T12:58:51.391Z,1.00
2023-04-30T13:01:22.050Z,0.80
2023-04-30T13:03:50.008Z,1.02
2023-04-30T13:06:18.174Z,0.70
2023-04-30T13:08:58.010Z,0.77
2023-04-30T13:11:27.301Z,0.95
2023-04-30T13:13:57.991Z,2.05
2023-04-30T13:16:26.202Z,0.80
2023-04-30T13:18:53.764Z,1.15
2023-04-30T13:21:21.948Z,0.80
2023-04-30T13:23:53.546Z,1.27
2023-04-30T13:26:23.701Z,1.10
2023-04-30T13:28:51.725Z,0.75
2023-04-30T13:31:18.984Z,0.77
2023-04-30T13:33:46.567Z,0.68
2023-04-30T13:36:13.788Z,0.70
2023-04-30T13:38:41.965Z,0.80
2023-04-30T13:41:09.670Z,1.00
2023-04-30T13:43:41.489Z,0.98
2023-04-30T13:46:09.825Z,0.80
2023-04-30T13:48:40.184Z,0.40
2023-04-30T13:51:08.286Z,0.80
2023-04-30T13:53:37.250Z,0.70
2023-04-30T13:56:04.762Z,1.05
2023-04-30T13:58:32.446Z,0.70
2023-04-30T14:00:59.938Z,0.80
2023-04-30T14:03:27.378Z,1.05
2023-04-30T14:05:55.701Z,0.60
2023-04-30T14:08:23.549Z,0.60
2023-04-30T14:10:50.814Z,0.60
2023-04-30T14:13:18.119Z,1.15
2023-04-30T14:15:45.522Z,1.02
2023-04-30T14:18:13.623Z,0.85
2023-04-30T14:20:41.447Z,0.90
2023-04-30T14:23:09.276Z,0.63
2023-04-30T14:25:36.989Z,0.90
2023-04-30T14:28:04.292Z,1.05
2023-04-30T14:30:31.773Z,0.90
2023-04-30T14:32:59.266Z,1.00
2023-04-30T14:35:27.404Z,0.77
2023-04-30T14:37:54.617Z,0.60
2023-04-30T14:40:22.014Z,1.23
2023-04-30T14:42:50.961Z,1.02
2023-04-30T14:45:18.246Z,0.82
2023-04-30T14:47:45.852Z,1.02
2023-04-30T14:50:13.616Z,1.35
2023-04-30T14:52:42.455Z,1.20
2023-04-30T14:55:09.839Z,1.25
2023-04-30T14:57:37.980Z,1.20
2023-04-30T15:00:07.020Z,1.10
2023-04-30T15:02:34.370Z,1.02
2023-04-30T15:05:01.413Z,0.88
2023-04-30T15:07:28.932Z,0.90
2023-04-30T15:09:57.103Z,0.80
2023-04-30T15:12:24.594Z,0.75
2023-04-30T15:14:52.807Z,1.48
2023-04-30T15:17:21.831Z,1.00
2023-04-30T15:19:49.593Z,1.42
2023-04-30T15:22:17.594Z,1.10
2023-04-30T15:24:46.214Z,0.60
2023-04-30T15:27:14.387Z,0.80
2023-04-30T15:29:42.091Z,0.82
2023-04-30T15:32:09.500Z,0.80
2023-04-30T15:34:36.654Z,0.90
2023-04-30T15:37:04.462Z,0.70
2023-04-30T15:39:32.129Z,0.70
2023-04-30T15:41:59.682Z,1.20
2023-04-30T15:44:27.214Z,0.70
2023-04-30T15:46:54.508Z,1.00
2023-04-30T15:49:23.876Z,0.70
2023-04-30T15:51:52.931Z,1.10
2023-04-30T15:54:23.960Z,1.55
2023-04-30T15:56:52.352Z,1.33
2023-04-30T15:59:23.236Z,1.40
2023-04-30T16:01:51.309Z,1.30
2023-04-30T16:04:19.098Z,1.90
2023-04-30T16:06:47.167Z,1.10
2023-04-30T16:09:17.502Z,0.90
2023-04-30T16:11:44.728Z,1.02
2023-04-30T16:14:12.716Z,0.88
2023-04-30T16:16:40.411Z,0.95
2023-04-30T16:19:08.485Z,0.90
2023-04-30T16:21:38.754Z,1.10
2023-04-30T16:24:09.108Z,0.85
2023-04-30T16:26:39.917Z,0.70
2023-04-30T16:29:08.006Z,0.90
2023-04-30T16:31:36.893Z,0.85
2023-04-30T16:34:06.191Z,0.80
2023-04-30T16:36:35.262Z,1.23
2023-04-30T16:39:04.799Z,1.30
2023-04-30T16:41:31.980Z,1.20
2023-04-30T16:43:59.667Z,0.93
2023-04-30T16:46:28.192Z,1.05
2023-04-30T16:48:58.329Z,1.23
2023-04-30T16:51:27.200Z,1.05
2023-04-30T16:53:54.694Z,1.20
2023-04-30T16:56:21.994Z,1.27
2023-04-30T16:58:49.727Z,1.52
2023-04-30T17:01:16.829Z,1.33
2023-04-30T17:03:44.985Z,1.58
2023-04-30T17:06:14.544Z,1.48
2023-04-30T17:08:42.197Z,1.95
2023-04-30T17:11:09.561Z,1.58
2023-04-30T17:13:37.933Z,1.98
2023-04-30T17:16:07.546Z,2.28
2023-04-30T17:18:35.359Z,2.15
2023-04-30T17:21:03.205Z,2.35
2023-04-30T17:23:31.899Z,2.75
2023-04-30T17:26:02.214Z,2.83
2023-04-30T17:28:33.200Z,2.40
2023-04-30T17:31:07.350Z,2.70
2023-04-30T17:33:36.355Z,2.60
2023-04-30T17:36:07.685Z,2.50
2023-04-30T17:38:36.181Z,2.38
2023-04-30T17:41:04.198Z,2.25
2023-04-30T17:43:31.799Z,2.25
2023-04-30T17:45:59.593Z,1.80
2023-04-30T17:48:27.577Z,1.20
2023-04-30T17:50:55.424Z,1.50
2023-04-30T17:53:22.973Z,1.35
2023-04-30T17:55:50.221Z,1.40
2023-04-30T17:58:17.764Z,1.73
2023-04-30T18:00:45.636Z,1.42
2023-04-30T18:03:13.264Z,1.15
2023-04-30T18:05:40.135Z,1.27
2023-04-30T18:08:08.294Z,1.50
2023-04-30T18:10:35.460Z,1.50
2023-04-30T18:13:02.967Z,1.70
2023-04-30T18:15:30.296Z,1.73
2023-04-30T18:17:59.363Z,2.10
2023-04-30T18:20:26.789Z,2.13
2023-04-30T18:22:54.244Z,2.38
2023-04-30T18:25:22.664Z,2.45
2023-04-30T18:27:50.370Z,2.10
2023-04-30T18:30:17.783Z,2.17
2023-04-30T18:32:45.376Z,2.03
2023-04-30T18:35:12.898Z,2.30
2023-04-30T18:37:40.123Z,2.40
2023-04-30T18:40:07.614Z,2.30
2023-04-30T18:42:35.233Z,2.78
2023-04-30T18:45:02.470Z,2.30
2023-04-30T18:47:31.176Z,2.55
2023-04-30T18:49:58.786Z,3.03
2023-04-30T18:52:26.197Z,2.50
2023-04-30T18:54:53.824Z,3.20
2023-04-30T18:57:24.482Z,3.20
2023-04-30T18:59:51.897Z,2.95
2023-04-30T19:02:18.923Z,2.72
2023-04-30T19:04:46.624Z,2.72
2023-04-30T19:07:14.455Z,3.85
2023-04-30T19:09:42.026Z,4.68
2023-04-30T19:12:10.788Z,5.32
2023-04-30T19:14:38.168Z,7.40
2023-04-30T19:17:06.383Z,5.20
2023-04-30T19:19:33.918Z,8.43
2023-04-30T19:22:01.640Z,6.18
2023-04-30T19:24:29.474Z,6.07
2023-04-30T19:26:57.222Z,6.57
2023-04-30T19:29:24.816Z,5.90
2023-04-30T19:31:52.101Z,5.25
2023-04-30T19:34:19.129Z,4.93
2023-04-30T19:36:46.393Z,5.25
2023-04-30T19:39:14.247Z,4.70
2023-04-30T19:41:41.027Z,5.28
2023-04-30T19:44:08.362Z,5.07
2023-04-30T19:46:36.053Z,4.00
2023-04-30T19:49:04.450Z,5.20
2023-04-30T19:51:32.307Z,4.72
2023-04-30T19:53:59.500Z,5.40
2023-04-30T19:56:27.083Z,4.63
2023-04-30T19:58:54.661Z,4.72
2023-04-30T20:01:22.495Z,4.55
2023-04-30T20:03:50.077Z,3.88
2023-04-30T20:06:17.191Z,4.13
2023-04-30T20:08:44.642Z,4.55
2023-04-30T20:11:12.290Z,5.10
2023-04-30T20:13:40.051Z,6.07
2023-04-30T20:16:12.730Z,4.32
2023-04-30T20:21:07.486Z,3.38
2023-04-30T20:23:34.508Z,3.38
2023-04-30T20:26:02.500Z,2.78
2023-04-30T20:28:31.014Z,2.75
2023-04-30T20:30:58.299Z,3.30
2023-04-30T20:33:26.863Z,3.03
2023-04-30T20:35:54.517Z,2.72
2023-04-30T20:38:22.265Z,3.10
2023-04-30T20:40:49.875Z,3.47
2023-04-30T20:43:17.585Z,3.30
2023-04-30T20:45:45.692Z,3.13
2023-04-30T20:48:13.361Z,3.28
2023-04-30T20:50:40.831Z,3.53
2023-04-30T20:53:10.363Z,4.28
2023-04-30T20:55:38.495Z,3.50
2023-04-30T20:58:05.904Z,2.72
2023-04-30T21:00:33.428Z,2.65
2023-04-30T21:03:01.041Z,2.60
2023-04-30T21:05:30.348Z,2.53
2023-04-30T21:08:01.701Z,2.70
2023-04-30T21:10:36.732Z,2.80
2023-04-30T21:13:05.928Z,2.60
2023-04-30T21:15:36.369Z,2.78
2023-04-30T21:18:04.115Z,3.05
2023-04-30T21:20:32.046Z,3.05
2023-04-30T21:22:59.502Z,2.55
2023-04-30T21:25:26.750Z,2.92
2023-04-30T21:27:53.962Z,2.88
2023-04-30T21:30:25.024Z,2.42
2023-04-30T21:32:58.365Z,3.30
2023-04-30T21:35:28.007Z,2.45
2023-04-30T21:37:55.528Z,3.03
2023-04-30T21:40:22.775Z,3.05
2023-04-30T21:42:50.062Z,3.20
2023-04-30T21:45:17.192Z,5.80
2023-04-30T21:47:45.054Z,5.72
2023-04-30T21:50:12.656Z,5.57
2023-04-30T21:52:39.777Z,6.28
2023-04-30T21:55:08.155Z,5.47
2023-04-30T21:57:35.686Z,4.18
2023-04-30T22:00:04.760Z,4.82
2023-04-30T22:02:33.234Z,4.20
2023-04-30T22:05:00.039Z,4.30
2023-04-30T22:07:28.327Z,4.55
2023-04-30T22:09:55.854Z,5.20
2023-04-30T22:12:25.375Z,4.72
2023-04-30T22:14:53.812Z,4.75
2023-04-30T22:17:21.885Z,5.30
2023-04-30T22:19:49.446Z,5.40
2023-04-30T22:22:16.802Z,5.32
2023-04-30T22:24:43.904Z,4.65
2023-04-30T22:27:11.641Z,4.40
2023-04-30T22:29:38.525Z,3.88
2023-04-30T22:32:07.697Z,3.97
2023-04-30T22:34:40.568Z,4.90
2023-04-30T22:39:37.443Z,4.63
2023-04-30T22:42:06.210Z,5.95
2023-04-30T22:44:34.303Z,6.68
2023-04-30T22:47:02.308Z,5.88
2023-04-30T22:49:32.249Z,5.25
2023-04-30T22:52:00.381Z,5.65
2023-04-30T22:54:27.659Z,5.40
2023-04-30T22:56:55.273Z,5.20
2023-04-30T22:59:22.443Z,4.72
2023-04-30T23:01:49.878Z,5.18
2023-04-30T23:04:16.867Z,4.50
2023-04-30T23:06:44.357Z,4.13
2023-04-30T23:09:12.866Z,3.95
2023-04-30T23:11:39.882Z,4.68
2023-04-30T23:14:07.069Z,4.18
2023-04-30T23:16:34.787Z,4.35
2023-04-30T23:19:01.612Z,4.00
2023-04-30T23:21:29.063Z,3.50
2023-04-30T23:23:57.649Z,3.15
2023-04-30T23:26:25.104Z,3.28
2023-04-30T23:28:53.822Z,3.38
2023-04-30T23:31:21.361Z,3.13
2023-04-30T23:33:48.877Z,3.30
2023-04-30T23:36:16.543Z,3.10
2023-04-30T23:38:43.945Z,3.00
2023-04-30T23:41:11.436Z,4.07
2023-04-30T23:43:38.751Z,4.55
2023-04-30T23:46:06.305Z,4.38
2023-04-30T23:48:34.492Z,4.55
2023-04-30T23:51:03.277Z,5.00
2023-04-30T23:53:31.592Z,5.05
2023-04-30T23:55:59.284Z,6.18
2023-04-30T23:58:27.272Z,5.50
